»·PEaware :: N501SC KSNA-KBUR

N501SC :: KSNA-KBUR

FLIGHT INFORMATION

Flight Status: Arrived
Operator: Privately registered:
United States
More flights under this callsign
Pilot: Chris M. (39433)
Aircraft: CESSNA 172 SKYHAWK
(C172)
More flights by this aircraft type
Origin: KSNA John Wayne-Orange Co
United States
Destination: KBUR Bob Hope-Burbank
United States
More flights between these airports :: More routes between these airports
Route: SLI V23 POPPR SMO125 SMO SMO311 SILEX
File this flight plan on PilotEdge
Remarks:
Altitude:
(Current/Filed)
4,000ft
Speed:
(Current/Filed)
115kts
Departed: 23-Nov-22 10:49 PM
Arrived: 23-Nov-22 11:30 PM
Distance/Time
Traveled:
40nm/0:40
Distance/Time
To Go:
Arrived

Flight Plot

Page will automatically refresh every two minutes.


Map Options




Map Legend


Flown Route
Filed Route
Departure Airport
Arrival Airport
Navaid (VOR, NDB)
Fix

Horizontal Profiles

Position Reports

Time Latitude Longitude Heading Altitude Ground
Speed
23-Nov-22 22:34 33.670558 -117.868701 299 53ft 0kts
23-Nov-22 22:35 33.670558 -117.868701 299 53ft 0kts
23-Nov-22 22:36 33.670558 -117.868701 299 53ft 0kts
23-Nov-22 22:37 33.670558 -117.868701 299 53ft 0kts
23-Nov-22 22:38 33.670558 -117.868701 299 53ft 0kts
23-Nov-22 22:39 33.670558 -117.868701 299 53ft 0kts
23-Nov-22 22:40 33.670558 -117.868701 299 53ft 0kts
23-Nov-22 22:41 33.670558 -117.868701 299 53ft 0kts
23-Nov-22 22:42 33.670558 -117.868701 299 53ft 0kts
23-Nov-22 22:43 33.670558 -117.868701 299 53ft 0kts
23-Nov-22 22:44 33.670558 -117.868701 299 53ft 0kts
23-Nov-22 22:45 33.672936 -117.867500 48 53ft 18kts
23-Nov-22 22:46 33.676187 -117.865782 28 54ft 20kts
23-Nov-22 22:47 33.679959 -117.863595 289 45ft 0kts
23-Nov-22 22:48 33.671309 -117.869388 207 294ft 79kts
23-Nov-22 22:49 33.654576 -117.886457 231 1264ft 87kts
23-Nov-22 22:50 33.638460 -117.908438 230 2255ft 86kts
23-Nov-22 22:51 33.622198 -117.931098 231 3106ft 93kts
23-Nov-22 22:52 33.611670 -117.956088 328 3888ft 83kts
23-Nov-22 22:53 33.631950 -117.982461 317 4008ft 120kts
23-Nov-22 22:54 33.652819 -118.012507 317 4003ft 115kts
23-Nov-22 22:55 33.673741 -118.042771 309 3859ft 114kts
23-Nov-22 22:56 33.693855 -118.071935 309 3852ft 112kts
23-Nov-22 22:57 33.713775 -118.100831 309 3851ft 112kts
23-Nov-22 22:58 33.733759 -118.129837 309 3852ft 112kts
23-Nov-22 22:59 33.753627 -118.158699 309 3852ft 112kts
23-Nov-22 23:00 33.773572 -118.187698 309 3852ft 112kts
23-Nov-22 23:01 33.793471 -118.216650 309 3854ft 111kts
23-Nov-22 23:02 33.813237 -118.245437 309 3849ft 112kts
23-Nov-22 23:03 33.832954 -118.274172 309 3852ft 112kts
23-Nov-22 23:04 33.857183 -118.296937 323 3857ft 112kts
23-Nov-22 23:05 33.882413 -118.319859 323 3853ft 112kts
23-Nov-22 23:06 33.907435 -118.342667 322 3862ft 112kts
23-Nov-22 23:07 33.932308 -118.365360 322 3860ft 111kts
23-Nov-22 23:08 33.957164 -118.388055 322 3858ft 112kts
23-Nov-22 23:09 33.981945 -118.410697 322 3862ft 111kts
23-Nov-22 23:10 34.006817 -118.433440 322 3861ft 112kts
23-Nov-22 23:11 34.030843 -118.455421 322 3849ft 104kts
23-Nov-22 23:12 34.053756 -118.476413 322 3843ft 104kts
23-Nov-22 23:13 34.076865 -118.497590 322 3845ft 104kts
23-Nov-22 23:14 34.100086 -118.518877 322 3843ft 105kts
23-Nov-22 23:15 34.123142 -118.540036 322 3862ft 104kts
23-Nov-22 23:16 34.146120 -118.561139 322 3861ft 103kts
23-Nov-22 23:17 34.168812 -118.581996 322 3856ft 102kts
23-Nov-22 23:18 34.191572 -118.602924 322 3855ft 102kts
23-Nov-22 23:19 34.204361 -118.630580 272 3852ft 105kts
23-Nov-22 23:20 34.188034 -118.635037 84 3573ft 116kts
23-Nov-22 23:21 34.201052 -118.605260 93 3543ft 99kts
23-Nov-22 23:22 34.200486 -118.568946 91 3071ft 108kts
23-Nov-22 23:23 34.200034 -118.532870 91 2856ft 104kts
23-Nov-22 23:24 34.199631 -118.498402 91 2846ft 101kts
23-Nov-22 23:25 34.199246 -118.468051 93 2725ft 83kts
23-Nov-22 23:26 34.198810 -118.437798 92 1874ft 93kts
23-Nov-22 23:27 34.198433 -118.408296 91 1414ft 79kts
23-Nov-22 23:28 34.198121 -118.383298 91 1014ft 74kts
23-Nov-22 23:29 34.197827 -118.361731 91 717ft 33kts
23-Nov-22 23:30 34.200171 -118.359374 324 720ft 3kts

Navigation Log

Ident Type
Flight plan parsing failed, navigation log unavailable